Time;durP1;ratioP1;P1;durP2;ratioP2;P2;SDS_P1;SDS_P2;PMS_P1;PMS_P2;Temp;Humidity;BMP_temperature;BMP_pressure;BME280_temperature;BME280_humidity;BME280_pressure;Samples;Min_cycle;Max_cycle;Signal;HPM_P1;HPM_P2
2023/01/25 00:01:09;;;;;;;5.88;2.30;;;24.20;55.30;;;;;;4951878;28;20199;-57
2023/01/25 00:03:40;;;;;;;5.30;1.85;;;24.20;55.30;;;;;;4953296;28;20202;-57
2023/01/25 00:06:11;;;;;;;9.55;2.25;;;24.20;55.30;;;;;;4945901;28;20230;-57
2023/01/25 00:08:42;;;;;;;5.43;2.33;;;24.20;55.40;;;;;;4953062;28;20227;-57
2023/01/25 00:11:15;;;;;;;5.07;2.00;;;24.20;55.50;;;;;;4952708;28;20679;-53
2023/01/25 00:13:48;;;;;;;3.50;1.80;;;24.20;55.50;;;;;;4917065;28;20235;-56
2023/01/25 00:16:19;;;;;;;6.97;2.00;;;24.30;55.50;;;;;;4938453;29;20230;-55
2023/01/25 00:18:50;;;;;;;6.70;2.10;;;24.40;55.50;;;;;;4952435;28;20235;-54
2023/01/25 00:21:22;;;;;;;4.10;1.90;;;24.40;55.40;;;;;;4952442;28;20195;-58
2023/01/25 00:23:53;;;;;;;5.72;1.70;;;24.50;55.40;;;;;;4952949;28;20199;-57
2023/01/25 00:26:23;;;;;;;5.45;1.92;;;24.50;55.30;;;;;;4952054;28;20226;-57
2023/01/25 00:28:57;;;;;;;5.20;1.80;;;24.50;55.20;;;;;;4952613;28;20206;-57
2023/01/25 00:31:37;;;;;;;3.90;1.67;;;24.60;55.10;;;;;;4951876;28;20213;-57
2023/01/25 00:34:29;;;;;;;5.45;1.98;;;24.60;55.00;;;;;;4952081;28;20592;-58
2023/01/25 00:37:03;;;;;;;5.32;1.95;;;24.60;55.00;;;;;;4952485;28;20222;-57
2023/01/25 00:39:34;;;;;;;7.43;2.22;;;24.70;54.90;;;;;;4952421;28;20561;-59
2023/01/25 00:42:05;;;;;;;2.92;1.67;;;24.70;54.90;;;;;;4948663;28;20195;-55
2023/01/25 00:44:37;;;;;;;5.13;1.58;;;24.70;54.80;;;;;;4924402;29;20199;-58
2023/01/25 00:47:08;;;;;;;4.65;1.80;;;24.70;54.80;;;;;;4931205;29;20235;-57
2023/01/25 00:49:39;;;;;;;4.65;2.22;;;24.70;54.80;;;;;;4932987;29;20210;-57
2023/01/25 00:52:11;;;;;;;5.50;2.13;;;24.70;54.70;;;;;;4950200;29;20213;-56
2023/01/25 00:54:42;;;;;;;6.43;2.13;;;24.80;54.60;;;;;;4952410;28;20210;-58
2023/01/25 00:57:13;;;;;;;6.18;2.30;;;24.90;54.60;;;;;;4951750;28;20842;-58
2023/01/25 00:59:46;;;;;;;6.35;2.30;;;24.90;54.60;;;;;;4951840;28;20240;-56
2023/01/25 01:02:17;;;;;;;4.80;1.90;;;24.90;54.50;;;;;;4951433;28;20245;-59
2023/01/25 01:04:47;;;;;;;7.35;2.35;;;24.90;54.50;;;;;;4945540;28;20198;-57
2023/01/25 01:07:18;;;;;;;9.15;2.30;;;24.90;54.40;;;;;;4949753;28;20230;-58
2023/01/25 01:09:49;;;;;;;6.68;2.17;;;24.90;54.40;;;;;;4952319;28;20226;-57
2023/01/25 01:12:19;;;;;;;5.93;1.98;;;24.90;54.30;;;;;;4953190;28;20205;-57
2023/01/25 01:14:52;;;;;;;5.80;2.50;;;25.00;54.30;;;;;;4954513;28;20663;-57
2023/01/25 01:17:23;;;;;;;7.13;2.42;;;25.00;54.30;;;;;;4953263;28;20206;-59
2023/01/25 01:19:53;;;;;;;5.85;2.40;;;25.00;54.30;;;;;;4955599;28;20194;-58
2023/01/25 01:22:24;;;;;;;6.13;2.53;;;25.00;54.20;;;;;;4956274;28;20195;-58
2023/01/25 01:24:55;;;;;;;6.78;2.60;;;25.10;54.20;;;;;;4955859;28;20213;-58
2023/01/25 01:27:27;;;;;;;5.72;2.25;;;25.10;54.20;;;;;;4955842;28;20234;-58
2023/01/25 01:29:59;;;;;;;6.63;2.35;;;25.10;54.20;;;;;;4955698;28;20211;-59
2023/01/25 01:32:30;;;;;;;7.60;2.60;;;25.10;54.20;;;;;;4954757;28;20198;-58
2023/01/25 01:35:01;;;;;;;7.43;2.45;;;25.10;54.10;;;;;;4955363;28;20215;-59
2023/01/25 01:37:31;;;;;;;8.93;2.60;;;25.20;54.10;;;;;;4955759;28;20223;-59
2023/01/25 01:40:02;;;;;;;7.13;2.40;;;25.20;54.00;;;;;;4955507;28;20203;-59
2023/01/25 01:42:33;;;;;;;6.88;2.83;;;25.20;53.90;;;;;;4955007;28;20678;-58
2023/01/25 01:45:19;;;;;;;5.63;2.00;;;25.20;53.90;;;;;;4944221;28;20199;-59
2023/01/25 01:47:50;;;;;;;5.10;2.08;;;25.30;53.90;;;;;;4955078;28;20253;-59
2023/01/25 01:50:25;;;;;;;5.45;1.98;;;25.30;53.90;;;;;;4955219;28;20199;-59
2023/01/25 01:52:55;;;;;;;8.57;2.58;;;25.30;53.90;;;;;;4955421;28;20206;-59
2023/01/25 01:55:26;;;;;;;5.30;2.35;;;25.30;53.90;;;;;;4954739;28;20207;-59
2023/01/25 01:58:02;;;;;;;5.82;2.30;;;25.30;53.90;;;;;;4916573;29;20239;-57
2023/01/25 02:00:39;;;;;;;6.32;2.33;;;25.30;53.90;;;;;;4916154;29;20207;-58
2023/01/25 02:03:15;;;;;;;6.95;2.17;;;25.30;53.80;;;;;;4953920;28;20203;-54
2023/01/25 02:05:55;;;;;;;6.07;1.98;;;25.40;53.80;;;;;;4941570;28;20287;-58
2023/01/25 02:08:27;;;;;;;4.78;2.22;;;25.40;53.80;;;;;;4954382;28;20941;-58
2023/01/25 02:10:58;;;;;;;7.75;2.47;;;25.40;53.80;;;;;;4954904;28;20202;-59
2023/01/25 02:13:29;;;;;;;6.10;2.33;;;25.40;53.80;;;;;;4954577;28;20659;-57
2023/01/25 02:16:02;;;;;;;6.00;2.10;;;25.50;53.70;;;;;;4947672;28;20214;-58
2023/01/25 02:18:33;;;;;;;6.95;2.60;;;25.50;53.80;;;;;;4954566;28;20222;-57
2023/01/25 02:21:04;;;;;;;5.95;2.35;;;25.50;53.80;;;;;;4954197;28;20210;-57
2023/01/25 02:23:42;;;;;;;6.93;2.58;;;25.50;53.70;;;;;;4954127;28;20199;-57
2023/01/25 02:26:15;;;;;;;6.18;2.15;;;25.60;53.80;;;;;;4954593;28;20222;-58
2023/01/25 02:28:48;;;;;;;8.35;2.30;;;25.60;53.80;;;;;;4953952;28;20249;-58
2023/01/25 02:31:19;;;;;;;6.03;2.00;;;25.50;53.70;;;;;;4954398;28;20191;-58
2023/01/25 02:33:50;;;;;;;6.60;2.40;;;25.60;53.80;;;;;;4955008;28;20202;-57
2023/01/25 02:36:25;;;;;;;8.35;2.55;;;25.60;53.70;;;;;;4952339;28;20196;-58
2023/01/25 02:38:59;;;;;;;7.15;2.45;;;25.60;53.70;;;;;;4916811;29;20200;-58
2023/01/25 02:41:35;;;;;;;7.55;2.28;;;25.60;54.20;;;;;;4926809;29;20187;-57
2023/01/25 02:44:09;;;;;;;7.93;2.83;;;25.60;53.60;;;;;;4954610;28;20682;-58
2023/01/25 02:46:41;;;;;;;9.35;2.58;;;25.60;53.50;;;;;;4944168;28;20229;-56
2023/01/25 02:49:12;;;;;;;9.63;2.85;;;25.60;53.50;;;;;;4953607;28;20195;-57
2023/01/25 02:51:44;;;;;;;5.70;2.80;;;25.70;53.50;;;;;;4945439;28;20199;-58
2023/01/25 02:54:16;;;;;;;8.52;2.53;;;25.70;53.50;;;;;;4934146;29;20192;-57
2023/01/25 02:56:49;;;;;;;7.47;2.50;;;25.70;53.50;;;;;;4942109;28;20192;-56
2023/01/25 02:59:20;;;;;;;5.85;2.20;;;25.80;53.50;;;;;;4953171;28;20683;-58
2023/01/25 03:01:51;;;;;;;7.05;2.58;;;25.80;53.50;;;;;;4954151;28;20202;-57
2023/01/25 03:04:22;;;;;;;5.10;2.50;;;25.80;53.50;;;;;;4950211;28;20675;-56
2023/01/25 03:06:52;;;;;;;10.57;2.40;;;25.80;53.50;;;;;;4942304;28;20230;-56
2023/01/25 03:09:23;;;;;;;9.35;2.35;;;25.80;53.40;;;;;;4953581;28;20269;-58
2023/01/25 03:11:56;;;;;;;9.52;2.20;;;25.80;53.30;;;;;;4953326;28;20206;-58
2023/01/25 03:14:26;;;;;;;9.13;2.58;;;25.80;53.90;;;;;;4953695;28;20199;-58
2023/01/25 03:16:57;;;;;;;8.27;2.28;;;25.90;53.30;;;;;;4942674;28;20253;-59
2023/01/25 03:19:28;;;;;;;8.48;2.80;;;25.90;53.30;;;;;;4953304;28;20217;-58
2023/01/25 03:21:59;;;;;;;9.55;2.80;;;25.90;53.20;;;;;;4953408;28;20202;-58
2023/01/25 03:24:29;;;;;;;11.55;2.55;;;25.90;53.20;;;;;;4953787;28;20207;-59
2023/01/25 03:27:17;;;;;;;4.95;2.13;;;25.90;53.20;;;;;;4952719;28;20591;-59
2023/01/25 03:29:47;;;;;;;5.05;2.33;;;25.90;53.10;;;;;;4953355;28;20218;-59
2023/01/25 03:32:18;;;;;;;8.68;2.30;;;26.00;53.10;;;;;;4952441;28;20191;-57
2023/01/25 03:34:49;;;;;;;5.32;2.22;;;26.00;53.10;;;;;;4953282;28;20202;-59
2023/01/25 03:37:20;;;;;;;7.07;2.65;;;26.00;53.10;;;;;;4952784;28;20222;-59
2023/01/25 03:39:50;;;;;;;7.45;2.58;;;26.00;53.00;;;;;;4953096;28;20211;-58
2023/01/25 03:42:25;;;;;;;6.75;2.60;;;26.00;53.00;;;;;;4946558;28;20196;-58
2023/01/25 03:44:56;;;;;;;7.10;2.05;;;26.10;53.10;;;;;;4933955;29;20700;-57
2023/01/25 03:47:26;;;;;;;7.72;2.42;;;26.10;53.10;;;;;;4943111;28;20230;-59
2023/01/25 03:49:57;;;;;;;5.82;2.30;;;26.10;53.10;;;;;;4952378;28;20569;-57
2023/01/25 03:52:33;;;;;;;5.38;2.22;;;26.10;53.60;;;;;;4952876;28;20206;-58
2023/01/25 03:55:03;;;;;;;6.18;2.15;;;26.20;53.00;;;;;;4952933;28;20203;-59
2023/01/25 03:57:36;;;;;;;3.72;2.28;;;26.10;53.00;;;;;;4952487;28;20230;-55
2023/01/25 04:00:07;;;;;;;5.82;2.00;;;26.20;53.00;;;;;;4952053;28;20233;-56
2023/01/25 04:02:38;;;;;;;5.35;1.88;;;26.20;52.90;;;;;;4952441;28;20266;-58
2023/01/25 04:05:09;;;;;;;4.18;2.10;;;26.20;52.90;;;;;;4943225;28;20597;-57
2023/01/25 04:07:40;;;;;;;5.78;2.10;;;26.20;52.80;;;;;;4942872;28;20234;-58
2023/01/25 04:10:12;;;;;;;6.90;2.47;;;26.30;52.80;;;;;;4952170;28;20198;-57
2023/01/25 04:12:45;;;;;;;6.20;2.50;;;26.30;52.80;;;;;;4952538;28;20878;-58
2023/01/25 04:15:15;;;;;;;7.72;2.15;;;26.30;52.80;;;;;;4948042;28;20222;-59
2023/01/25 04:17:46;;;;;;;6.35;2.40;;;26.40;52.70;;;;;;4943730;28;20245;-57
2023/01/25 04:20:17;;;;;;;6.40;2.20;;;26.40;52.70;;;;;;4953278;28;20211;-59
2023/01/25 04:22:48;;;;;;;5.10;2.00;;;26.40;52.60;;;;;;4951670;28;20211;-59
2023/01/25 04:25:19;;;;;;;5.13;2.13;;;26.40;52.50;;;;;;4952913;28;20210;-58
2023/01/25 04:27:53;;;;;;;5.65;2.33;;;26.40;52.40;;;;;;4943969;28;20243;-59
2023/01/25 04:30:23;;;;;;;6.00;1.83;;;26.40;52.50;;;;;;4933375;29;20203;-59
2023/01/25 04:32:54;;;;;;;7.47;2.47;;;26.40;52.50;;;;;;4944361;29;20643;-59
2023/01/25 04:35:25;;;;;;;9.68;2.25;;;26.40;52.50;;;;;;4952724;28;20202;-59
2023/01/25 04:37:59;;;;;;;6.13;2.35;;;26.40;52.50;;;;;;4952589;28;20754;-59
2023/01/25 04:40:30;;;;;;;7.55;2.08;;;26.50;52.60;;;;;;4952696;28;20198;-59
2023/01/25 04:43:02;;;;;;;7.22;2.47;;;26.50;52.50;;;;;;4952868;28;20201;-59
2023/01/25 04:45:35;;;;;;;6.40;2.30;;;26.50;52.50;;;;;;4944616;28;20202;-58
2023/01/25 04:48:08;;;;;;;5.13;2.28;;;26.50;52.40;;;;;;4947784;29;20238;-59
2023/01/25 04:50:39;;;;;;;5.63;2.20;;;26.50;52.40;;;;;;4956796;28;20222;-59
2023/01/25 04:53:11;;;;;;;6.22;2.33;;;26.50;52.30;;;;;;4951794;28;20214;-59
2023/01/25 04:55:41;;;;;;;6.55;2.60;;;26.50;52.30;;;;;;4956565;28;20198;-57
2023/01/25 04:58:14;;;;;;;7.03;2.08;;;26.60;52.30;;;;;;4956401;28;20222;-59
2023/01/25 05:00:45;;;;;;;5.20;2.25;;;26.60;52.20;;;;;;4956365;28;20207;-59
2023/01/25 05:03:15;;;;;;;4.93;2.28;;;26.60;52.30;;;;;;4942646;28;20204;-58
2023/01/25 05:05:49;;;;;;;7.00;2.22;;;26.60;52.20;;;;;;4937374;29;20674;-59
2023/01/25 05:08:20;;;;;;;5.00;2.00;;;26.60;52.30;;;;;;4948937;29;20241;-57
2023/01/25 05:10:50;;;;;;;6.18;2.40;;;26.60;52.20;;;;;;4944833;28;20210;-57
2023/01/25 05:13:23;;;;;;;4.88;2.38;;;26.60;52.30;;;;;;4937622;29;20666;-58
2023/01/25 05:15:54;;;;;;;3.75;1.80;;;26.60;52.30;;;;;;4936531;28;20673;-58
2023/01/25 05:18:24;;;;;;;5.82;2.45;;;26.60;52.20;;;;;;4936306;29;20227;-58
2023/01/25 05:20:57;;;;;;;3.83;2.55;;;26.70;52.20;;;;;;4936620;29;20206;-59
2023/01/25 05:23:28;;;;;;;5.05;2.10;;;26.70;52.70;;;;;;4937146;29;20543;-59
2023/01/25 05:28:48;;;;;;;7.60;2.40;;;26.70;52.20;;;;;;4937077;29;20234;-56
2023/01/25 05:31:19;;;;;;;5.93;2.40;;;26.70;52.20;;;;;;4936880;29;20210;-59
2023/01/25 05:33:50;;;;;;;3.65;1.92;;;26.70;52.30;;;;;;4936482;29;20594;-56
2023/01/25 05:36:20;;;;;;;5.10;2.00;;;26.70;52.30;;;;;;4936291;29;20242;-59
2023/01/25 05:38:51;;;;;;;7.28;2.38;;;26.70;52.30;;;;;;4935958;29;20215;-59
2023/01/25 05:41:22;;;;;;;5.15;2.20;;;26.70;52.30;;;;;;4936392;29;20200;-57
2023/01/25 05:43:55;;;;;;;6.28;2.20;;;26.70;52.50;;;;;;4936543;29;20207;-57
2023/01/25 05:46:25;;;;;;;3.90;2.17;;;26.70;52.30;;;;;;4938288;29;20200;-58
2023/01/25 05:48:56;;;;;;;4.90;2.35;;;26.70;52.30;;;;;;4917017;29;20301;-59
2023/01/25 05:51:27;;;;;;;3.20;1.98;;;26.70;52.30;;;;;;4917426;29;20204;-59
2023/01/25 05:53:58;;;;;;;6.40;2.28;;;26.70;52.80;;;;;;4935590;29;20207;-59
2023/01/25 05:56:31;;;;;;;6.20;2.20;;;26.70;52.10;;;;;;4936616;29;20204;-59
2023/01/25 05:59:04;;;;;;;5.93;2.30;;;26.70;52.10;;;;;;4936331;29;20691;-59
2023/01/25 06:01:35;;;;;;;6.22;2.25;;;26.70;52.10;;;;;;4936132;29;20214;-59
2023/01/25 06:04:06;;;;;;;4.78;2.33;;;26.70;52.10;;;;;;4936283;29;20207;-58
2023/01/25 06:06:36;;;;;;;5.93;2.53;;;26.70;52.10;;;;;;4935444;29;20203;-57
2023/01/25 06:09:07;;;;;;;6.30;2.55;;;26.70;52.20;;;;;;4935803;29;20723;-59
2023/01/25 06:11:38;;;;;;;5.65;2.65;;;26.70;52.20;;;;;;4935963;29;20211;-59
2023/01/25 06:14:10;;;;;;;5.05;2.30;;;26.80;52.20;;;;;;4936069;29;20675;-59
2023/01/25 06:16:41;;;;;;;8.07;2.80;;;26.70;52.20;;;;;;4936031;29;20208;-58
2023/01/25 06:19:14;;;;;;;5.32;2.13;;;26.70;52.20;;;;;;4935978;29;20250;-59
2023/01/25 06:21:44;;;;;;;4.70;2.33;;;26.70;52.20;;;;;;4936543;29;20201;-57
2023/01/25 06:24:15;;;;;;;7.50;2.75;;;26.70;52.20;;;;;;4935712;29;20591;-58
2023/01/25 06:26:46;;;;;;;4.68;2.35;;;26.70;52.10;;;;;;4935437;29;20200;-59
2023/01/25 06:29:18;;;;;;;7.22;2.70;;;26.80;52.20;;;;;;4937861;29;20222;-58
2023/01/25 06:31:49;;;;;;;3.20;2.20;;;26.70;52.10;;;;;;4935164;29;20196;-57
2023/01/25 06:34:20;;;;;;;4.38;2.28;;;26.70;52.10;;;;;;4935645;29;20211;-57
2023/01/25 06:36:51;;;;;;;6.15;2.30;;;26.70;52.10;;;;;;4935368;29;20594;-59
2023/01/25 06:39:22;;;;;;;5.95;2.50;;;26.70;52.10;;;;;;4935741;29;20681;-56
2023/01/25 06:41:53;;;;;;;5.95;2.50;;;26.80;52.20;;;;;;4935168;29;20207;-60
2023/01/25 06:44:26;;;;;;;6.53;2.55;;;26.70;52.10;;;;;;4934714;29;20206;-56
2023/01/25 06:46:57;;;;;;;6.22;2.70;;;26.70;52.00;;;;;;4931282;29;20227;-56
2023/01/25 06:49:28;;;;;;;5.13;2.58;;;26.70;52.00;;;;;;4934591;29;20203;-56
2023/01/25 06:52:00;;;;;;;5.38;2.30;;;26.70;52.00;;;;;;4923404;29;20597;-59
2023/01/25 06:54:30;;;;;;;6.35;2.30;;;26.70;51.90;;;;;;4934574;29;20294;-56
2023/01/25 06:57:01;;;;;;;4.30;2.50;;;26.70;51.90;;;;;;4934387;29;20219;-58
2023/01/25 06:59:33;;;;;;;4.72;2.40;;;26.70;51.80;;;;;;4934809;29;20211;-59
2023/01/25 07:02:04;;;;;;;5.75;2.50;;;26.70;51.90;;;;;;4934322;29;20200;-56
2023/01/25 07:04:35;;;;;;;5.20;2.35;;;26.70;51.90;;;;;;4934254;29;20231;-54
2023/01/25 07:07:08;;;;;;;3.15;1.85;;;26.70;51.90;;;;;;4935055;29;20235;-51
2023/01/25 07:09:39;;;;;;;5.35;2.35;;;26.70;52.00;;;;;;4934698;29;20218;-56
2023/01/25 07:12:10;;;;;;;5.63;2.30;;;26.70;52.00;;;;;;4934893;29;20196;-55
2023/01/25 07:14:43;;;;;;;5.78;2.53;;;26.70;52.00;;;;;;4934914;29;20203;-57
2023/01/25 07:17:14;;;;;;;6.30;2.90;;;26.70;52.00;;;;;;4934421;29;20225;-58
2023/01/25 07:19:44;;;;;;;6.13;2.47;;;26.70;52.00;;;;;;4934201;29;20211;-52
2023/01/25 07:22:16;;;;;;;5.28;2.20;;;26.70;51.90;;;;;;4934923;29;20196;-55
2023/01/25 07:24:49;;;;;;;6.82;2.10;;;26.70;51.90;;;;;;4930730;29;20200;-59
2023/01/25 07:27:20;;;;;;;5.90;2.50;;;26.70;52.40;;;;;;4927850;29;20232;-57
2023/01/25 07:29:52;;;;;;;5.97;2.60;;;26.60;51.70;;;;;;4928220;29;20207;-53
2023/01/25 07:32:23;;;;;;;4.47;2.60;;;26.60;51.70;;;;;;4928743;29;20203;-54
2023/01/25 07:34:54;;;;;;;4.55;2.33;;;26.60;51.70;;;;;;4927339;29;20207;-54
2023/01/25 07:37:26;;;;;;;6.28;2.50;;;26.60;51.70;;;;;;4929503;29;20242;-56
2023/01/25 07:39:57;;;;;;;5.00;2.40;;;26.60;51.70;;;;;;4928985;29;20720;-57
2023/01/25 07:42:27;;;;;;;5.57;2.30;;;26.60;51.80;;;;;;4927792;29;20212;-56
2023/01/25 07:45:00;;;;;;;4.65;2.25;;;26.50;51.70;;;;;;4928314;29;20216;-56
2023/01/25 07:47:31;;;;;;;4.60;2.20;;;26.50;51.70;;;;;;4928808;29;20717;-56
2023/01/25 07:50:02;;;;;;;5.38;2.00;;;26.50;51.80;;;;;;4933869;29;20213;-56
2023/01/25 07:52:33;;;;;;;6.13;2.45;;;26.50;51.80;;;;;;4927454;28;20204;-56
2023/01/25 07:55:04;;;;;;;5.80;2.38;;;26.50;51.80;;;;;;4915333;29;20196;-57
2023/01/25 07:57:34;;;;;;;3.20;1.98;;;26.50;51.80;;;;;;4915196;29;20241;-55
2023/01/25 08:00:08;;;;;;;4.10;2.08;;;26.50;51.80;;;;;;4915080;29;20238;-54
2023/01/25 08:02:39;;;;;;;5.95;2.17;;;26.50;51.80;;;;;;4915005;29;20673;-55
2023/01/25 08:05:11;;;;;;;5.32;2.25;;;26.50;51.80;;;;;;4915355;29;20567;-58
2023/01/25 08:07:41;;;;;;;4.95;2.20;;;26.40;51.80;;;;;;4914169;29;20767;-56
2023/01/25 08:10:13;;;;;;;3.50;1.90;;;26.40;51.80;;;;;;4914109;29;20207;-57
2023/01/25 08:12:47;;;;;;;5.70;2.25;;;26.40;51.80;;;;;;4914936;29;20203;-56
2023/01/25 08:15:21;;;;;;;5.10;2.10;;;26.40;51.80;;;;;;4920055;29;20612;-56
2023/01/25 08:17:52;;;;;;;6.07;2.67;;;26.30;51.90;;;;;;4932856;29;20699;-55
2023/01/25 08:20:23;;;;;;;10.50;2.83;;;26.30;51.90;;;;;;4933397;29;20196;-54
2023/01/25 08:22:54;;;;;;;10.02;3.17;;;26.30;51.90;;;;;;4951220;23;20230;-45
2023/01/25 08:25:25;;;;;;;8.73;3.22;;;26.30;51.90;;;;;;4952802;28;20290;-45
2023/01/25 08:27:56;;;;;;;11.27;3.38;;;26.20;51.90;;;;;;4952919;28;20225;-45
2023/01/25 08:30:29;;;;;;;6.13;2.58;;;26.20;51.90;;;;;;4952624;28;20219;-46
2023/01/25 08:33:00;;;;;;;7.47;3.22;;;26.20;52.00;;;;;;4950951;28;20202;-44
2023/01/25 08:35:30;;;;;;;5.15;2.33;;;26.20;52.00;;;;;;4932311;29;20226;-46
2023/01/25 08:38:01;;;;;;;5.78;2.35;;;26.20;52.00;;;;;;4961634;28;20215;-46
2023/01/25 08:40:32;;;;;;;6.22;2.50;;;26.20;52.00;;;;;;4951960;28;20566;-46
2023/01/25 08:43:03;;;;;;;8.15;3.10;;;26.20;52.00;;;;;;4969963;28;20225;-45
2023/01/25 08:45:35;;;;;;;5.50;2.58;;;26.20;52.00;;;;;;4964151;28;20206;-45
2023/01/25 08:48:06;;;;;;;6.93;2.72;;;26.10;52.00;;;;;;4970592;28;20925;-45
2023/01/25 08:50:37;;;;;;;6.22;2.42;;;26.10;52.00;;;;;;4959644;28;20195;-47
2023/01/25 08:53:08;;;;;;;6.03;2.42;;;26.10;52.00;;;;;;4957069;28;20207;-46
2023/01/25 08:55:40;;;;;;;5.85;2.40;;;26.10;52.00;;;;;;4935202;28;20222;-46
2023/01/25 08:58:12;;;;;;;6.63;2.80;;;26.00;52.00;;;;;;4970371;28;20583;-46
2023/01/25 09:00:45;;;;;;;9.60;2.53;;;26.00;52.00;;;;;;4971984;28;20285;-46
2023/01/25 09:03:16;;;;;;;8.27;3.17;;;26.00;52.00;;;;;;4971360;28;20213;-45
2023/01/25 09:05:47;;;;;;;9.48;2.60;;;26.00;52.10;;;;;;4947002;28;20230;-45
2023/01/25 09:08:18;;;;;;;6.30;2.72;;;26.00;52.20;;;;;;4971022;28;20232;-44
2023/01/25 09:10:48;;;;;;;8.00;2.42;;;25.90;52.20;;;;;;4958300;28;20211;-45
2023/01/25 09:13:19;;;;;;;8.18;2.88;;;25.90;52.20;;;;;;4971131;28;20212;-45
2023/01/25 09:15:52;;;;;;;10.18;2.75;;;25.90;52.20;;;;;;4961941;28;20203;-47
2023/01/25 09:18:22;;;;;;;7.20;2.50;;;25.90;52.20;;;;;;4970618;28;20301;-47
2023/01/25 09:20:53;;;;;;;8.32;2.95;;;25.90;52.30;;;;;;4971192;28;20209;-45
2023/01/25 09:23:24;;;;;;;9.88;2.95;;;25.90;52.30;;;;;;4960534;23;20249;-57
2023/01/25 09:26:00;;;;;;;8.00;2.60;;;25.90;52.30;;;;;;4932734;29;20215;-57
2023/01/25 09:28:31;;;;;;;8.30;3.00;;;25.80;52.30;;;;;;4948551;29;20241;-56
2023/01/25 09:31:05;;;;;;;6.75;2.88;;;25.80;52.30;;;;;;4952092;28;20202;-57
2023/01/25 09:33:38;;;;;;;7.78;2.83;;;25.80;52.40;;;;;;4953095;28;20285;-57
2023/01/25 09:36:09;;;;;;;8.20;3.05;;;25.80;52.40;;;;;;4955467;28;20203;-57
2023/01/25 09:38:40;;;;;;;6.78;3.13;;;25.80;52.50;;;;;;4955203;28;20226;-57
2023/01/25 09:41:29;;;;;;;9.90;3.00;;;25.70;52.50;;;;;;4955283;28;20211;-57
2023/01/25 09:44:21;;;;;;;7.43;3.45;;;25.70;52.50;;;;;;4955533;28;20219;-57
2023/01/25 09:46:56;;;;;;;8.10;3.05;;;25.70;52.60;;;;;;4943106;28;20227;-57
2023/01/25 09:49:43;;;;;;;8.90;3.58;;;25.70;52.60;;;;;;4954979;28;20226;-57
2023/01/25 09:52:35;;;;;;;7.57;3.60;;;25.70;52.60;;;;;;4950106;28;20196;-57
2023/01/25 09:55:13;;;;;;;7.28;3.58;;;25.70;52.60;;;;;;4937788;29;20195;-58
2023/01/25 09:57:47;;;;;;;6.43;3.08;;;25.70;52.70;;;;;;4947088;28;20250;-57
2023/01/25 10:00:20;;;;;;;7.90;3.28;;;25.60;52.70;;;;;;4954863;28;20202;-57
2023/01/25 10:02:57;;;;;;;7.68;3.50;;;25.60;52.70;;;;;;4936914;28;20212;-57
2023/01/25 10:05:32;;;;;;;6.85;3.47;;;25.60;52.80;;;;;;4916738;29;20569;-57
2023/01/25 10:08:07;;;;;;;7.03;3.35;;;25.60;52.80;;;;;;4944042;28;20229;-57
2023/01/25 10:10:41;;;;;;;4.97;3.08;;;25.50;52.70;;;;;;4955042;28;20263;-56
2023/01/25 10:13:13;;;;;;;6.80;3.50;;;25.50;52.70;;;;;;4954776;29;20254;-57
2023/01/25 10:15:49;;;;;;;7.60;3.50;;;25.50;52.70;;;;;;4946042;28;20203;-57
2023/01/25 10:18:28;;;;;;;5.85;3.40;;;25.50;52.80;;;;;;4950984;28;20218;-57
2023/01/25 10:21:03;;;;;;;5.18;2.92;;;25.40;52.80;;;;;;4955212;28;20199;-57
2023/01/25 10:23:57;;;;;;;6.72;3.30;;;25.40;52.80;;;;;;4954821;28;20229;-57
2023/01/25 10:26:30;;;;;;;7.15;3.22;;;25.40;52.80;;;;;;4947992;28;20211;-57
2023/01/25 10:29:06;;;;;;;5.63;2.97;;;25.40;52.70;;;;;;4931287;29;20287;-57
2023/01/25 10:31:45;;;;;;;7.90;3.33;;;25.40;52.60;;;;;;4936016;29;20195;-58
2023/01/25 10:34:22;;;;;;;6.85;3.25;;;25.40;52.60;;;;;;4954722;28;20207;-57
2023/01/25 10:36:57;;;;;;;4.75;3.00;;;25.30;52.60;;;;;;4954428;28;20218;-57
2023/01/25 10:39:27;;;;;;;7.05;3.40;;;25.30;52.60;;;;;;4954227;28;20206;-58
2023/01/25 10:42:00;;;;;;;6.53;3.00;;;25.30;52.60;;;;;;4954195;28;20206;-56
2023/01/25 10:44:32;;;;;;;5.70;3.17;;;25.30;52.60;;;;;;4953421;28;20210;-57
2023/01/25 10:47:07;;;;;;;6.93;2.97;;;25.30;52.60;;;;;;4938787;28;20222;-57
2023/01/25 10:49:45;;;;;;;5.43;3.05;;;25.20;52.50;;;;;;4953990;28;20234;-57
2023/01/25 10:52:18;;;;;;;5.28;3.13;;;25.20;52.60;;;;;;4947564;28;20573;-57
2023/01/25 10:54:50;;;;;;;5.15;2.95;;;25.20;52.50;;;;;;4935037;29;20223;-57
2023/01/25 10:57:23;;;;;;;3.90;2.30;;;25.20;52.60;;;;;;4940168;29;20223;-56
2023/01/25 10:59:56;;;;;;;6.28;3.15;;;25.10;52.50;;;;;;4954273;28;20199;-56
2023/01/25 11:02:45;;;;;;;3.97;2.33;;;25.10;52.50;;;;;;4953592;28;20198;-57
2023/01/25 11:05:33;;;;;;;5.65;2.88;;;25.10;52.50;;;;;;4922242;28;20215;-56
2023/01/25 11:08:24;;;;;;;5.63;2.85;;;25.10;52.50;;;;;;4927328;29;20226;-57
2023/01/25 11:10:55;;;;;;;4.53;2.55;;;25.10;52.50;;;;;;4934498;29;20554;-57
2023/01/25 11:13:29;;;;;;;4.05;2.40;;;25.10;52.60;;;;;;4947918;29;20195;-57
2023/01/25 11:16:18;;;;;;;4.57;2.85;;;25.00;52.40;;;;;;4943333;28;20215;-58
2023/01/25 11:18:54;;;;;;;4.53;2.60;;;25.00;52.40;;;;;;4950446;29;20231;-57
2023/01/25 11:21:28;;;;;;;4.03;2.55;;;25.00;52.50;;;;;;4953832;28;20250;-57
2023/01/25 11:24:04;;;;;;;5.05;2.78;;;24.90;52.40;;;;;;4953434;28;20203;-57
2023/01/25 11:26:37;;;;;;;4.28;2.40;;;24.90;52.40;;;;;;4939383;28;20602;-55
2023/01/25 11:29:16;;;;;;;5.10;2.92;;;24.90;52.40;;;;;;4934553;29;20227;-56
2023/01/25 11:31:48;;;;;;;4.80;2.60;;;24.90;52.50;;;;;;4933873;29;20203;-56
2023/01/25 11:34:20;;;;;;;5.82;2.65;;;24.90;52.50;;;;;;4934036;29;20747;-57
2023/01/25 11:37:30;;;;;;;4.85;2.67;;;24.90;52.50;;;;;;4933879;29;20196;-56
2023/01/25 11:40:11;;;;;;;4.50;2.78;;;24.80;52.50;;;;;;4915147;29;20215;-57
2023/01/25 11:42:57;;;;;;;3.50;2.33;;;24.90;52.50;;;;;;4933761;29;20658;-55
2023/01/25 11:46:04;;;;;;;7.20;2.60;;;24.80;52.50;;;;;;4933318;29;20297;-56
2023/01/25 11:48:48;;;;;;;4.43;2.47;;;24.80;52.40;;;;;;4933785;29;20218;-57
2023/01/25 11:51:28;;;;;;;3.72;2.53;;;24.80;52.40;;;;;;4933849;29;20199;-55
2023/01/25 11:54:24;;;;;;;4.25;2.60;;;24.80;52.40;;;;;;4927578;29;20211;-55
2023/01/25 11:57:00;;;;;;;3.50;1.92;;;24.70;52.50;;;;;;4928395;29;20234;-56
2023/01/25 11:59:47;;;;;;;3.85;2.47;;;24.70;52.50;;;;;;4928342;29;20207;-53
2023/01/25 12:02:47;;;;;;;3.33;2.00;;;24.70;52.50;;;;;;4928853;29;20200;-56
2023/01/25 12:05:35;;;;;;;4.47;2.55;;;24.60;52.40;;;;;;4927980;29;20211;-55
2023/01/25 12:08:19;;;;;;;5.00;2.25;;;24.60;52.50;;;;;;4928225;29;20238;-54
2023/01/25 12:10:59;;;;;;;4.20;2.25;;;24.60;52.50;;;;;;4928083;29;20609;-55
2023/01/25 12:13:46;;;;;;;5.32;2.50;;;24.60;52.50;;;;;;4928427;29;20678;-56
2023/01/25 12:16:30;;;;;;;4.82;2.63;;;24.50;52.40;;;;;;4928390;29;20233;-55
2023/01/25 12:19:30;;;;;;;3.63;2.28;;;24.60;52.50;;;;;;4927251;29;20849;-54
2023/01/25 12:22:25;;;;;;;4.13;2.15;;;24.50;52.40;;;;;;4919761;28;20215;-55
2023/01/25 12:25:04;;;;;;;3.83;2.53;;;24.50;52.40;;;;;;4928032;29;20207;-52
2023/01/25 12:27:51;;;;;;;4.22;2.67;;;24.50;52.40;;;;;;4927477;29;20604;-55
2023/01/25 12:30:28;;;;;;;4.47;2.47;;;24.50;52.40;;;;;;4928547;29;20703;-53
2023/01/25 12:33:03;;;;;;;4.82;2.45;;;24.40;52.80;;;;;;4927516;29;20297;-54
2023/01/25 12:35:40;;;;;;;3.85;2.13;;;24.40;52.40;;;;;;4929050;29;20195;-55
2023/01/25 12:38:16;;;;;;;3.08;1.80;;;24.40;52.50;;;;;;4925741;29;20229;-54
2023/01/25 12:40:55;;;;;;;4.32;2.13;;;24.40;52.50;;;;;;4928082;29;20210;-51
2023/01/25 12:43:33;;;;;;;3.67;2.30;;;24.30;52.40;;;;;;4927557;29;21731;-50
2023/01/25 12:46:09;;;;;;;3.63;2.30;;;24.30;52.40;;;;;;4926667;29;20267;-51
2023/01/25 12:48:44;;;;;;;3.55;2.20;;;24.30;52.40;;;;;;4927734;29;20596;-52
2023/01/25 12:51:15;;;;;;;4.57;2.30;;;24.30;52.40;;;;;;4927510;29;20230;-54
2023/01/25 12:53:48;;;;;;;3.75;2.10;;;24.30;52.40;;;;;;4927228;29;20208;-56
2023/01/25 12:56:32;;;;;;;3.78;1.95;;;24.30;52.40;;;;;;4928377;29;20619;-53
2023/01/25 12:59:17;;;;;;;2.85;1.77;;;24.30;52.40;;;;;;4927933;29;20223;-54
2023/01/25 13:01:52;;;;;;;3.10;2.35;;;24.30;52.40;;;;;;4926042;29;20214;-51
2023/01/25 13:04:41;;;;;;;3.15;2.10;;;24.30;52.40;;;;;;4928215;29;20215;-53
2023/01/25 13:07:19;;;;;;;5.50;2.40;;;24.20;52.40;;;;;;4927424;29;20707;-55
2023/01/25 13:09:59;;;;;;;3.85;1.90;;;24.20;52.40;;;;;;4930644;29;20245;-52
2023/01/25 13:12:30;;;;;;;4.53;2.17;;;24.20;52.50;;;;;;4931647;29;20207;-56
2023/01/25 13:15:02;;;;;;;2.55;1.65;;;24.10;52.50;;;;;;4931689;29;20215;-53
2023/01/25 13:17:37;;;;;;;3.05;1.98;;;24.10;52.50;;;;;;4931288;29;20230;-55
2023/01/25 13:20:51;;;;;;;4.20;1.83;;;24.10;52.50;;;;;;4930410;29;20214;-56
2023/01/25 13:23:33;;;;;;;3.10;2.00;;;24.10;52.50;;;;;;4929539;29;20217;-57